sensor_id;sensor_type;location;lat;lon;timestamp;temperature;humidity
61386;DHT22;47256;18.904;-99.054;2022-12-07T00:01:44;25.00;78.40
61386;DHT22;47256;18.904;-99.054;2022-12-07T00:04:14;25.00;79.40
61386;DHT22;47256;18.904;-99.054;2022-12-07T00:06:46;24.90;79.60
61386;DHT22;47256;18.904;-99.054;2022-12-07T00:09:16;24.90;80.40
61386;DHT22;47256;18.904;-99.054;2022-12-07T00:11:44;24.80;80.30
61386;DHT22;47256;18.904;-99.054;2022-12-07T00:14:17;24.80;81.30
61386;DHT22;47256;18.904;-99.054;2022-12-07T00:16:45;24.70;81.50
61386;DHT22;47256;18.904;-99.054;2022-12-07T00:19:13;24.60;81.40
61386;DHT22;47256;18.904;-99.054;2022-12-07T00:21:42;24.60;81.40
61386;DHT22;47256;18.904;-99.054;2022-12-07T00:24:10;24.60;81.90
61386;DHT22;47256;18.904;-99.054;2022-12-07T00:26:41;24.50;81.40
61386;DHT22;47256;18.904;-99.054;2022-12-07T00:29:20;24.50;82.00
61386;DHT22;47256;18.904;-99.054;2022-12-07T00:31:48;24.40;81.70
61386;DHT22;47256;18.904;-99.054;2022-12-07T00:34:17;24.40;82.10
61386;DHT22;47256;18.904;-99.054;2022-12-07T00:36:45;24.30;82.10
61386;DHT22;47256;18.904;-99.054;2022-12-07T00:39:13;24.30;82.60
61386;DHT22;47256;18.904;-99.054;2022-12-07T00:41:41;24.20;82.90
61386;DHT22;47256;18.904;-99.054;2022-12-07T00:44:08;24.20;83.30
61386;DHT22;47256;18.904;-99.054;2022-12-07T00:46:36;24.10;82.90
61386;DHT22;47256;18.904;-99.054;2022-12-07T00:49:05;24.10;82.40
61386;DHT22;47256;18.904;-99.054;2022-12-07T00:51:35;24.00;82.50
61386;DHT22;47256;18.904;-99.054;2022-12-07T00:54:05;24.00;83.00
61386;DHT22;47256;18.904;-99.054;2022-12-07T00:56:33;24.00;82.20
61386;DHT22;47256;18.904;-99.054;2022-12-07T00:59:03;23.90;82.60
61386;DHT22;47256;18.904;-99.054;2022-12-07T01:01:33;23.90;83.10
61386;DHT22;47256;18.904;-99.054;2022-12-07T01:04:03;23.90;83.20
61386;DHT22;47256;18.904;-99.054;2022-12-07T01:06:31;23.90;83.30
61386;DHT22;47256;18.904;-99.054;2022-12-07T01:08:58;23.80;82.90
61386;DHT22;47256;18.904;-99.054;2022-12-07T01:11:28;23.80;83.50
61386;DHT22;47256;18.904;-99.054;2022-12-07T01:14:00;23.70;83.30
61386;DHT22;47256;18.904;-99.054;2022-12-07T01:16:30;23.70;83.30
61386;DHT22;47256;18.904;-99.054;2022-12-07T01:18:59;23.60;84.00
61386;DHT22;47256;18.904;-99.054;2022-12-07T01:21:29;23.60;84.70
61386;DHT22;47256;18.904;-99.054;2022-12-07T01:24:00;23.50;85.00
61386;DHT22;47256;18.904;-99.054;2022-12-07T01:26:28;23.50;84.80
61386;DHT22;47256;18.904;-99.054;2022-12-07T01:29:00;23.50;84.40
61386;DHT22;47256;18.904;-99.054;2022-12-07T01:31:28;23.50;84.30
61386;DHT22;47256;18.904;-99.054;2022-12-07T01:33:59;23.40;85.10
61386;DHT22;47256;18.904;-99.054;2022-12-07T01:36:31;23.30;86.50
61386;DHT22;47256;18.904;-99.054;2022-12-07T01:39:02;23.20;86.60
61386;DHT22;47256;18.904;-99.054;2022-12-07T01:41:34;23.10;84.90
61386;DHT22;47256;18.904;-99.054;2022-12-07T01:44:17;23.10;86.30
61386;DHT22;47256;18.904;-99.054;2022-12-07T01:47:02;23.10;86.80
61386;DHT22;47256;18.904;-99.054;2022-12-07T01:49:46;22.90;87.10
61386;DHT22;47256;18.904;-99.054;2022-12-07T01:52:21;22.90;86.60
61386;DHT22;47256;18.904;-99.054;2022-12-07T01:54:54;23.00;86.00
61386;DHT22;47256;18.904;-99.054;2022-12-07T01:57:25;23.00;85.80
61386;DHT22;47256;18.904;-99.054;2022-12-07T01:59:56;23.10;85.60
61386;DHT22;47256;18.904;-99.054;2022-12-07T02:02:57;23.00;85.70
61386;DHT22;47256;18.904;-99.054;2022-12-07T02:05:31;23.00;87.20
61386;DHT22;47256;18.904;-99.054;2022-12-07T02:08:01;22.90;86.50
61386;DHT22;47256;18.904;-99.054;2022-12-07T02:10:36;22.80;86.10
61386;DHT22;47256;18.904;-99.054;2022-12-07T02:13:21;22.80;86.30
61386;DHT22;47256;18.904;-99.054;2022-12-07T02:16:18;22.80;87.50
61386;DHT22;47256;18.904;-99.054;2022-12-07T02:22:32;22.70;86.30
61386;DHT22;47256;18.904;-99.054;2022-12-07T02:31:24;22.50;87.50
61386;DHT22;47256;18.904;-99.054;2022-12-07T02:43:06;22.40;86.70
61386;DHT22;47256;18.904;-99.054;2022-12-07T02:45:41;22.30;87.90
61386;DHT22;47256;18.904;-99.054;2022-12-07T02:48:19;22.30;87.90
61386;DHT22;47256;18.904;-99.054;2022-12-07T02:50:52;22.20;88.00
61386;DHT22;47256;18.904;-99.054;2022-12-07T02:53:31;22.20;88.20
61386;DHT22;47256;18.904;-99.054;2022-12-07T03:08:06;22.10;88.80
61386;DHT22;47256;18.904;-99.054;2022-12-07T03:11:06;22.00;89.70
61386;DHT22;47256;18.904;-99.054;2022-12-07T03:14:02;21.90;90.00
61386;DHT22;47256;18.904;-99.054;2022-12-07T03:16:49;21.90;90.00
61386;DHT22;47256;18.904;-99.054;2022-12-07T03:19:24;21.90;90.10
61386;DHT22;47256;18.904;-99.054;2022-12-07T03:22:05;21.90;89.90
61386;DHT22;47256;18.904;-99.054;2022-12-07T03:24:44;21.80;90.00
61386;DHT22;47256;18.904;-99.054;2022-12-07T03:27:32;21.80;89.40
61386;DHT22;47256;18.904;-99.054;2022-12-07T03:30:07;21.70;89.50
61386;DHT22;47256;18.904;-99.054;2022-12-07T03:32:58;21.70;89.40
61386;DHT22;47256;18.904;-99.054;2022-12-07T03:35:33;21.60;90.20
61386;DHT22;47256;18.904;-99.054;2022-12-07T03:38:20;21.60;89.90
61386;DHT22;47256;18.904;-99.054;2022-12-07T03:43:32;21.50;90.10
61386;DHT22;47256;18.904;-99.054;2022-12-07T03:46:32;21.60;89.90
61386;DHT22;47256;18.904;-99.054;2022-12-07T03:49:25;21.50;90.00
61386;DHT22;47256;18.904;-99.054;2022-12-07T03:52:26;21.50;90.10
61386;DHT22;47256;18.904;-99.054;2022-12-07T03:57:41;21.50;90.10
61386;DHT22;47256;18.904;-99.054;2022-12-07T04:00:12;21.30;90.40
61386;DHT22;47256;18.904;-99.054;2022-12-07T04:02:42;21.20;90.50
61386;DHT22;47256;18.904;-99.054;2022-12-07T04:05:11;21.30;90.60
61386;DHT22;47256;18.904;-99.054;2022-12-07T04:07:40;21.20;90.40
61386;DHT22;47256;18.904;-99.054;2022-12-07T04:10:10;21.20;90.60
61386;DHT22;47256;18.904;-99.054;2022-12-07T04:12:39;21.20;90.50
61386;DHT22;47256;18.904;-99.054;2022-12-07T04:15:08;21.20;90.40
61386;DHT22;47256;18.904;-99.054;2022-12-07T04:17:37;21.20;90.00
61386;DHT22;47256;18.904;-99.054;2022-12-07T04:20:08;21.20;89.30
61386;DHT22;47256;18.904;-99.054;2022-12-07T04:22:40;21.10;89.60
61386;DHT22;47256;18.904;-99.054;2022-12-07T04:25:09;21.00;90.00
61386;DHT22;47256;18.904;-99.054;2022-12-07T04:28:01;20.80;90.00
61386;DHT22;47256;18.904;-99.054;2022-12-07T04:30:34;20.80;90.30
61386;DHT22;47256;18.904;-99.054;2022-12-07T04:33:03;20.70;90.30
61386;DHT22;47256;18.904;-99.054;2022-12-07T04:35:31;20.70;90.40
61386;DHT22;47256;18.904;-99.054;2022-12-07T04:38:06;20.70;90.40
61386;DHT22;47256;18.904;-99.054;2022-12-07T04:40:36;20.70;90.50
61386;DHT22;47256;18.904;-99.054;2022-12-07T04:43:04;20.70;90.40
61386;DHT22;47256;18.904;-99.054;2022-12-07T04:45:32;20.80;90.30
61386;DHT22;47256;18.904;-99.054;2022-12-07T04:48:01;20.80;90.30
61386;DHT22;47256;18.904;-99.054;2022-12-07T04:50:35;20.60;90.70
61386;DHT22;47256;18.904;-99.054;2022-12-07T04:53:05;20.50;90.70
61386;DHT22;47256;18.904;-99.054;2022-12-07T04:55:40;20.50;90.60
61386;DHT22;47256;18.904;-99.054;2022-12-07T04:58:07;20.60;90.70
61386;DHT22;47256;18.904;-99.054;2022-12-07T05:00:41;20.50;91.00
61386;DHT22;47256;18.904;-99.054;2022-12-07T05:03:09;20.40;90.90
61386;DHT22;47256;18.904;-99.054;2022-12-07T05:05:39;20.40;90.90
61386;DHT22;47256;18.904;-99.054;2022-12-07T05:08:07;20.40;90.90
61386;DHT22;47256;18.904;-99.054;2022-12-07T05:10:35;20.40;90.70
61386;DHT22;47256;18.904;-99.054;2022-12-07T05:13:04;20.50;90.50
61386;DHT22;47256;18.904;-99.054;2022-12-07T05:15:31;20.50;90.60
61386;DHT22;47256;18.904;-99.054;2022-12-07T05:17:59;20.50;90.50
61386;DHT22;47256;18.904;-99.054;2022-12-07T05:20:27;20.50;90.40
61386;DHT22;47256;18.904;-99.054;2022-12-07T05:22:57;20.40;90.00
61386;DHT22;47256;18.904;-99.054;2022-12-07T05:25:26;20.30;90.20
61386;DHT22;47256;18.904;-99.054;2022-12-07T05:27:58;20.10;90.70
61386;DHT22;47256;18.904;-99.054;2022-12-07T05:30:26;19.90;91.10
61386;DHT22;47256;18.904;-99.054;2022-12-07T05:32:54;19.90;91.30
61386;DHT22;47256;18.904;-99.054;2022-12-07T05:35:22;19.90;91.30
61386;DHT22;47256;18.904;-99.054;2022-12-07T05:37:49;19.90;91.50
61386;DHT22;47256;18.904;-99.054;2022-12-07T05:40:19;19.90;91.60
61386;DHT22;47256;18.904;-99.054;2022-12-07T05:42:47;20.00;91.70
61386;DHT22;47256;18.904;-99.054;2022-12-07T05:45:14;20.00;91.80
61386;DHT22;47256;18.904;-99.054;2022-12-07T05:47:44;19.90;91.70
61386;DHT22;47256;18.904;-99.054;2022-12-07T05:50:14;19.90;91.70
61386;DHT22;47256;18.904;-99.054;2022-12-07T05:52:59;19.90;91.20
61386;DHT22;47256;18.904;-99.054;2022-12-07T05:55:29;19.90;91.70
61386;DHT22;47256;18.904;-99.054;2022-12-07T05:57:56;19.90;91.20
61386;DHT22;47256;18.904;-99.054;2022-12-07T06:00:44;19.80;91.30
61386;DHT22;47256;18.904;-99.054;2022-12-07T06:03:11;19.80;91.50
61386;DHT22;47256;18.904;-99.054;2022-12-07T06:05:44;19.90;91.70
61386;DHT22;47256;18.904;-99.054;2022-12-07T06:08:11;19.90;91.40
61386;DHT22;47256;18.904;-99.054;2022-12-07T06:10:39;19.80;91.50
61386;DHT22;47256;18.904;-99.054;2022-12-07T06:13:07;19.80;91.60
61386;DHT22;47256;18.904;-99.054;2022-12-07T06:15:38;19.80;91.50
61386;DHT22;47256;18.904;-99.054;2022-12-07T06:18:05;19.80;91.60
61386;DHT22;47256;18.904;-99.054;2022-12-07T06:20:32;19.80;91.80
61386;DHT22;47256;18.904;-99.054;2022-12-07T06:22:59;19.80;91.80
61386;DHT22;47256;18.904;-99.054;2022-12-07T06:25:26;19.80;91.80
61386;DHT22;47256;18.904;-99.054;2022-12-07T06:28:03;19.80;91.60
61386;DHT22;47256;18.904;-99.054;2022-12-07T06:30:30;19.50;92.00
61386;DHT22;47256;18.904;-99.054;2022-12-07T06:32:57;19.50;91.90
61386;DHT22;47256;18.904;-99.054;2022-12-07T06:35:24;19.40;91.90
61386;DHT22;47256;18.904;-99.054;2022-12-07T06:37:52;19.30;92.20
61386;DHT22;47256;18.904;-99.054;2022-12-07T06:40:19;19.30;92.40
61386;DHT22;47256;18.904;-99.054;2022-12-07T06:42:47;19.40;92.20
61386;DHT22;47256;18.904;-99.054;2022-12-07T06:45:14;19.50;91.90
61386;DHT22;47256;18.904;-99.054;2022-12-07T06:47:48;19.50;91.80
61386;DHT22;47256;18.904;-99.054;2022-12-07T06:50:15;19.50;91.80
61386;DHT22;47256;18.904;-99.054;2022-12-07T06:52:43;19.40;91.30
61386;DHT22;47256;18.904;-99.054;2022-12-07T06:55:12;19.30;91.60
61386;DHT22;47256;18.904;-99.054;2022-12-07T06:57:40;19.20;91.50
61386;DHT22;47256;18.904;-99.054;2022-12-07T07:00:07;19.20;91.70
61386;DHT22;47256;18.904;-99.054;2022-12-07T07:02:37;19.10;91.50
61386;DHT22;47256;18.904;-99.054;2022-12-07T07:05:05;19.10;91.50
61386;DHT22;47256;18.904;-99.054;2022-12-07T07:07:34;19.10;91.40
61386;DHT22;47256;18.904;-99.054;2022-12-07T07:10:02;19.00;91.80
61386;DHT22;47256;18.904;-99.054;2022-12-07T07:12:29;19.00;91.70
61386;DHT22;47256;18.904;-99.054;2022-12-07T07:14:58;19.00;91.70
61386;DHT22;47256;18.904;-99.054;2022-12-07T07:17:25;18.90;91.80
61386;DHT22;47256;18.904;-99.054;2022-12-07T07:19:54;18.80;91.70
61386;DHT22;47256;18.904;-99.054;2022-12-07T07:22:21;18.90;91.70
61386;DHT22;47256;18.904;-99.054;2022-12-07T07:24:49;18.90;91.80
61386;DHT22;47256;18.904;-99.054;2022-12-07T07:27:16;18.90;91.70
61386;DHT22;47256;18.904;-99.054;2022-12-07T07:29:50;19.00;91.70
61386;DHT22;47256;18.904;-99.054;2022-12-07T07:32:17;19.00;91.50
61386;DHT22;47256;18.904;-99.054;2022-12-07T07:34:44;19.00;91.50
61386;DHT22;47256;18.904;-99.054;2022-12-07T07:37:11;19.00;91.50
61386;DHT22;47256;18.904;-99.054;2022-12-07T07:39:40;18.90;91.40
61386;DHT22;47256;18.904;-99.054;2022-12-07T07:42:07;18.80;91.40
61386;DHT22;47256;18.904;-99.054;2022-12-07T07:44:35;18.70;91.70
61386;DHT22;47256;18.904;-99.054;2022-12-07T07:47:02;18.60;91.60
61386;DHT22;47256;18.904;-99.054;2022-12-07T07:49:33;18.70;91.80
61386;DHT22;47256;18.904;-99.054;2022-12-07T07:52:08;18.70;91.60
61386;DHT22;47256;18.904;-99.054;2022-12-07T07:54:35;18.80;91.50
61386;DHT22;47256;18.904;-99.054;2022-12-07T07:57:03;18.90;91.20
61386;DHT22;47256;18.904;-99.054;2022-12-07T07:59:31;18.90;91.20
61386;DHT22;47256;18.904;-99.054;2022-12-07T08:01:59;18.90;91.10
61386;DHT22;47256;18.904;-99.054;2022-12-07T08:04:26;18.80;91.50
61386;DHT22;47256;18.904;-99.054;2022-12-07T08:06:58;18.70;91.40
61386;DHT22;47256;18.904;-99.054;2022-12-07T08:09:26;18.70;91.40
61386;DHT22;47256;18.904;-99.054;2022-12-07T08:11:54;18.70;91.70
61386;DHT22;47256;18.904;-99.054;2022-12-07T08:14:23;18.70;91.60
61386;DHT22;47256;18.904;-99.054;2022-12-07T08:16:51;18.60;91.60
61386;DHT22;47256;18.904;-99.054;2022-12-07T08:19:19;18.60;91.70
61386;DHT22;47256;18.904;-99.054;2022-12-07T08:21:46;18.50;91.80
61386;DHT22;47256;18.904;-99.054;2022-12-07T08:24:15;18.50;91.90
61386;DHT22;47256;18.904;-99.054;2022-12-07T08:26:46;18.60;92.00
61386;DHT22;47256;18.904;-99.054;2022-12-07T08:29:18;18.50;91.90
61386;DHT22;47256;18.904;-99.054;2022-12-07T08:31:47;18.50;91.70
61386;DHT22;47256;18.904;-99.054;2022-12-07T08:34:18;18.40;91.70
61386;DHT22;47256;18.904;-99.054;2022-12-07T08:36:45;18.30;92.10
61386;DHT22;47256;18.904;-99.054;2022-12-07T08:39:13;18.20;91.90
61386;DHT22;47256;18.904;-99.054;2022-12-07T08:41:42;18.20;91.80
61386;DHT22;47256;18.904;-99.054;2022-12-07T08:44:10;18.20;91.80
61386;DHT22;47256;18.904;-99.054;2022-12-07T08:46:40;18.20;91.90
61386;DHT22;47256;18.904;-99.054;2022-12-07T08:49:16;18.20;91.70
61386;DHT22;47256;18.904;-99.054;2022-12-07T08:51:46;18.20;91.70
61386;DHT22;47256;18.904;-99.054;2022-12-07T08:54:17;18.20;91.50
61386;DHT22;47256;18.904;-99.054;2022-12-07T08:56:48;18.30;91.60
61386;DHT22;47256;18.904;-99.054;2022-12-07T08:59:17;18.20;91.50
61386;DHT22;47256;18.904;-99.054;2022-12-07T09:01:44;18.10;91.60
61386;DHT22;47256;18.904;-99.054;2022-12-07T09:04:14;18.00;91.50
61386;DHT22;47256;18.904;-99.054;2022-12-07T09:06:43;18.00;91.30
61386;DHT22;47256;18.904;-99.054;2022-12-07T09:09:12;18.00;91.30
61386;DHT22;47256;18.904;-99.054;2022-12-07T09:11:40;18.00;91.10
61386;DHT22;47256;18.904;-99.054;2022-12-07T09:14:08;18.00;91.30
61386;DHT22;47256;18.904;-99.054;2022-12-07T09:16:36;18.00;91.50
61386;DHT22;47256;18.904;-99.054;2022-12-07T09:19:03;17.90;90.70
61386;DHT22;47256;18.904;-99.054;2022-12-07T09:21:31;17.80;91.20
61386;DHT22;47256;18.904;-99.054;2022-12-07T09:23:58;17.80;91.10
61386;DHT22;47256;18.904;-99.054;2022-12-07T09:26:26;17.80;91.20
61386;DHT22;47256;18.904;-99.054;2022-12-07T09:29:00;17.70;91.10
61386;DHT22;47256;18.904;-99.054;2022-12-07T09:31:29;17.60;90.90
61386;DHT22;47256;18.904;-99.054;2022-12-07T09:34:00;17.40;90.70
61386;DHT22;47256;18.904;-99.054;2022-12-07T09:36:28;17.30;90.70
61386;DHT22;47256;18.904;-99.054;2022-12-07T09:38:56;17.30;91.30
61386;DHT22;47256;18.904;-99.054;2022-12-07T09:41:27;17.30;91.30
61386;DHT22;47256;18.904;-99.054;2022-12-07T09:44:09;17.30;91.30
61386;DHT22;47256;18.904;-99.054;2022-12-07T09:46:40;17.20;90.90
61386;DHT22;47256;18.904;-99.054;2022-12-07T09:49:20;17.00;91.00
61386;DHT22;47256;18.904;-99.054;2022-12-07T09:52:03;17.00;90.60
61386;DHT22;47256;18.904;-99.054;2022-12-07T09:54:50;17.00;91.10
61386;DHT22;47256;18.904;-99.054;2022-12-07T09:57:27;17.10;91.30
61386;DHT22;47256;18.904;-99.054;2022-12-07T10:00:04;17.10;91.00
61386;DHT22;47256;18.904;-99.054;2022-12-07T10:02:39;17.10;90.90
61386;DHT22;47256;18.904;-99.054;2022-12-07T10:05:18;17.10;91.00
61386;DHT22;47256;18.904;-99.054;2022-12-07T10:07:47;17.10;90.90
61386;DHT22;47256;18.904;-99.054;2022-12-07T10:10:32;17.20;90.80
61386;DHT22;47256;18.904;-99.054;2022-12-07T10:13:03;17.20;90.70
61386;DHT22;47256;18.904;-99.054;2022-12-07T10:15:53;17.20;90.70
61386;DHT22;47256;18.904;-99.054;2022-12-07T10:18:27;17.20;90.60
61386;DHT22;47256;18.904;-99.054;2022-12-07T10:24:08;17.20;90.60
61386;DHT22;47256;18.904;-99.054;2022-12-07T10:29:38;17.20;90.80
61386;DHT22;47256;18.904;-99.054;2022-12-07T10:34:44;17.20;90.80
61386;DHT22;47256;18.904;-99.054;2022-12-07T10:37:20;17.10;90.70
61386;DHT22;47256;18.904;-99.054;2022-12-07T10:39:52;17.10;90.50
61386;DHT22;47256;18.904;-99.054;2022-12-07T10:42:24;17.10;90.70
61386;DHT22;47256;18.904;-99.054;2022-12-07T10:47:47;16.90;90.80
61386;DHT22;47256;18.904;-99.054;2022-12-07T10:59:19;16.70;91.00
61386;DHT22;47256;18.904;-99.054;2022-12-07T11:07:47;16.80;90.90
61386;DHT22;47256;18.904;-99.054;2022-12-07T11:12:57;16.60;90.90
61386;DHT22;47256;18.904;-99.054;2022-12-07T11:21:30;16.30;90.90
61386;DHT22;47256;18.904;-99.054;2022-12-07T11:24:17;16.40;90.60
61386;DHT22;47256;18.904;-99.054;2022-12-07T11:27:06;16.40;90.40
61386;DHT22;47256;18.904;-99.054;2022-12-07T11:32:17;16.40;90.70
61386;DHT22;47256;18.904;-99.054;2022-12-07T11:35:24;16.40;90.60
61386;DHT22;47256;18.904;-99.054;2022-12-07T11:38:02;16.30;90.40
61386;DHT22;47256;18.904;-99.054;2022-12-07T11:40:36;16.20;90.50
61386;DHT22;47256;18.904;-99.054;2022-12-07T11:43:20;16.00;90.20
61386;DHT22;47256;18.904;-99.054;2022-12-07T11:46:11;15.90;90.70
61386;DHT22;47256;18.904;-99.054;2022-12-07T11:48:58;16.00;91.10
61386;DHT22;47256;18.904;-99.054;2022-12-07T11:51:31;16.10;90.90
61386;DHT22;47256;18.904;-99.054;2022-12-07T11:54:32;16.10;90.70
61386;DHT22;47256;18.904;-99.054;2022-12-07T11:57:10;16.10;90.40
61386;DHT22;47256;18.904;-99.054;2022-12-07T11:59:47;16.20;90.40
61386;DHT22;47256;18.904;-99.054;2022-12-07T12:02:28;16.00;90.40
61386;DHT22;47256;18.904;-99.054;2022-12-07T12:07:46;15.90;90.70
61386;DHT22;47256;18.904;-99.054;2022-12-07T12:10:35;15.90;90.80
61386;DHT22;47256;18.904;-99.054;2022-12-07T12:19:04;16.00;90.50
61386;DHT22;47256;18.904;-99.054;2022-12-07T12:21:44;15.90;90.50
61386;DHT22;47256;18.904;-99.054;2022-12-07T12:24:19;16.00;90.60
61386;DHT22;47256;18.904;-99.054;2022-12-07T12:26:52;16.00;90.40
61386;DHT22;47256;18.904;-99.054;2022-12-07T12:29:36;15.90;90.40
61386;DHT22;47256;18.904;-99.054;2022-12-07T12:42:53;15.80;90.10
61386;DHT22;47256;18.904;-99.054;2022-12-07T12:45:31;15.80;90.00
61386;DHT22;47256;18.904;-99.054;2022-12-07T12:48:37;15.80;90.00
61386;DHT22;47256;18.904;-99.054;2022-12-07T12:51:36;15.80;90.00
61386;DHT22;47256;18.904;-99.054;2022-12-07T12:54:13;15.70;90.20
61386;DHT22;47256;18.904;-99.054;2022-12-07T13:21:02;15.50;90.50
61386;DHT22;47256;18.904;-99.054;2022-12-07T13:23:55;15.50;90.70
61386;DHT22;47256;18.904;-99.054;2022-12-07T13:29:19;15.60;90.80
61386;DHT22;47256;18.904;-99.054;2022-12-07T13:31:57;15.70;90.90
61386;DHT22;47256;18.904;-99.054;2022-12-07T13:34:40;15.80;90.70
61386;DHT22;47256;18.904;-99.054;2022-12-07T13:37:27;15.80;90.20
61386;DHT22;47256;18.904;-99.054;2022-12-07T13:40:12;15.90;90.30
61386;DHT22;47256;18.904;-99.054;2022-12-07T13:42:45;15.90;90.10
61386;DHT22;47256;18.904;-99.054;2022-12-07T13:45:25;16.00;90.10
61386;DHT22;47256;18.904;-99.054;2022-12-07T13:50:54;16.20;90.20
61386;DHT22;47256;18.904;-99.054;2022-12-07T13:53:25;16.30;90.20
61386;DHT22;47256;18.904;-99.054;2022-12-07T13:55:58;16.30;90.30
61386;DHT22;47256;18.904;-99.054;2022-12-07T13:58:31;16.30;88.30
61386;DHT22;47256;18.904;-99.054;2022-12-07T14:01:05;16.30;88.60
61386;DHT22;47256;18.904;-99.054;2022-12-07T14:03:35;16.50;89.80
61386;DHT22;47256;18.904;-99.054;2022-12-07T14:08:46;16.70;90.20
61386;DHT22;47256;18.904;-99.054;2022-12-07T14:11:17;16.90;90.00
61386;DHT22;47256;18.904;-99.054;2022-12-07T14:13:56;17.00;90.10
61386;DHT22;47256;18.904;-99.054;2022-12-07T14:16:31;17.10;89.80
61386;DHT22;47256;18.904;-99.054;2022-12-07T14:19:00;17.20;90.00
61386;DHT22;47256;18.904;-99.054;2022-12-07T14:21:34;17.30;90.10
61386;DHT22;47256;18.904;-99.054;2022-12-07T14:24:19;17.50;90.00
61386;DHT22;47256;18.904;-99.054;2022-12-07T14:26:55;17.70;89.40
61386;DHT22;47256;18.904;-99.054;2022-12-07T14:32:13;18.00;87.00
61386;DHT22;47256;18.904;-99.054;2022-12-07T14:35:07;18.20;87.00
61386;DHT22;47256;18.904;-99.054;2022-12-07T14:37:38;18.40;86.20
61386;DHT22;47256;18.904;-99.054;2022-12-07T14:40:11;18.40;86.90
61386;DHT22;47256;18.904;-99.054;2022-12-07T14:42:41;18.60;85.00
61386;DHT22;47256;18.904;-99.054;2022-12-07T14:45:17;18.80;85.60
61386;DHT22;47256;18.904;-99.054;2022-12-07T14:47:46;19.00;82.90
61386;DHT22;47256;18.904;-99.054;2022-12-07T14:50:15;19.20;83.90
61386;DHT22;47256;18.904;-99.054;2022-12-07T14:52:48;19.30;82.60
61386;DHT22;47256;18.904;-99.054;2022-12-07T14:55:37;19.50;85.60
61386;DHT22;47256;18.904;-99.054;2022-12-07T14:58:11;19.60;84.90
61386;DHT22;47256;18.904;-99.054;2022-12-07T15:00:42;19.90;84.80
61386;DHT22;47256;18.904;-99.054;2022-12-07T15:03:10;20.00;83.90
61386;DHT22;47256;18.904;-99.054;2022-12-07T15:05:42;20.20;78.70
61386;DHT22;47256;18.904;-99.054;2022-12-07T15:08:13;20.40;80.30
61386;DHT22;47256;18.904;-99.054;2022-12-07T15:10:41;20.60;79.30
61386;DHT22;47256;18.904;-99.054;2022-12-07T15:13:09;20.70;80.30
61386;DHT22;47256;18.904;-99.054;2022-12-07T15:15:55;20.90;79.20
61386;DHT22;47256;18.904;-99.054;2022-12-07T15:18:28;21.10;78.80
61386;DHT22;47256;18.904;-99.054;2022-12-07T15:20:55;21.20;77.60
61386;DHT22;47256;18.904;-99.054;2022-12-07T15:23:23;21.30;77.90
61386;DHT22;47256;18.904;-99.054;2022-12-07T15:25:51;21.50;78.60
61386;DHT22;47256;18.904;-99.054;2022-12-07T15:28:22;21.60;80.10
61386;DHT22;47256;18.904;-99.054;2022-12-07T15:30:51;21.70;78.60
61386;DHT22;47256;18.904;-99.054;2022-12-07T15:33:19;21.80;77.30
61386;DHT22;47256;18.904;-99.054;2022-12-07T15:35:47;22.00;75.40
61386;DHT22;47256;18.904;-99.054;2022-12-07T15:38:14;22.10;73.80
61386;DHT22;47256;18.904;-99.054;2022-12-07T15:40:42;22.20;73.60
61386;DHT22;47256;18.904;-99.054;2022-12-07T15:43:13;22.40;76.50
61386;DHT22;47256;18.904;-99.054;2022-12-07T15:45:59;22.60;74.40
61386;DHT22;47256;18.904;-99.054;2022-12-07T15:48:28;22.70;76.30
61386;DHT22;47256;18.904;-99.054;2022-12-07T15:51:08;22.80;75.30
61386;DHT22;47256;18.904;-99.054;2022-12-07T15:53:36;22.90;74.90
61386;DHT22;47256;18.904;-99.054;2022-12-07T15:56:06;23.00;77.30
61386;DHT22;47256;18.904;-99.054;2022-12-07T15:58:35;23.10;77.20
61386;DHT22;47256;18.904;-99.054;2022-12-07T16:01:14;23.20;76.60
61386;DHT22;47256;18.904;-99.054;2022-12-07T16:03:44;23.40;75.20
61386;DHT22;47256;18.904;-99.054;2022-12-07T16:06:18;23.50;72.10
61386;DHT22;47256;18.904;-99.054;2022-12-07T16:08:51;23.70;72.00
61386;DHT22;47256;18.904;-99.054;2022-12-07T16:11:19;23.80;73.10
61386;DHT22;47256;18.904;-99.054;2022-12-07T16:13:49;24.00;76.20
61386;DHT22;47256;18.904;-99.054;2022-12-07T16:16:18;24.00;79.50
61386;DHT22;47256;18.904;-99.054;2022-12-07T16:18:47;24.10;77.60
61386;DHT22;47256;18.904;-99.054;2022-12-07T16:21:17;24.10;78.30
61386;DHT22;47256;18.904;-99.054;2022-12-07T16:23:45;24.20;78.10
61386;DHT22;47256;18.904;-99.054;2022-12-07T16:26:15;24.20;77.30
61386;DHT22;47256;18.904;-99.054;2022-12-07T16:28:50;24.20;75.40
61386;DHT22;47256;18.904;-99.054;2022-12-07T16:31:21;24.30;75.70
61386;DHT22;47256;18.904;-99.054;2022-12-07T16:33:54;24.50;75.30
61386;DHT22;47256;18.904;-99.054;2022-12-07T16:36:23;24.70;75.00
61386;DHT22;47256;18.904;-99.054;2022-12-07T16:38:51;24.80;71.70
61386;DHT22;47256;18.904;-99.054;2022-12-07T16:41:23;24.80;73.20
61386;DHT22;47256;18.904;-99.054;2022-12-07T16:43:50;24.90;68.90
61386;DHT22;47256;18.904;-99.054;2022-12-07T16:46:18;24.80;69.40
61386;DHT22;47256;18.904;-99.054;2022-12-07T16:48:45;25.00;72.90
61386;DHT22;47256;18.904;-99.054;2022-12-07T16:51:14;25.10;69.60
61386;DHT22;47256;18.904;-99.054;2022-12-07T16:53:43;25.20;69.00
61386;DHT22;47256;18.904;-99.054;2022-12-07T16:56:15;25.40;69.50
61386;DHT22;47256;18.904;-99.054;2022-12-07T16:58:47;25.60;66.10
61386;DHT22;47256;18.904;-99.054;2022-12-07T17:01:18;25.80;67.70
61386;DHT22;47256;18.904;-99.054;2022-12-07T17:03:47;25.90;65.40
61386;DHT22;47256;18.904;-99.054;2022-12-07T17:06:17;26.00;66.30
61386;DHT22;47256;18.904;-99.054;2022-12-07T17:09:12;26.10;66.60
61386;DHT22;47256;18.904;-99.054;2022-12-07T17:11:44;26.30;66.80
61386;DHT22;47256;18.904;-99.054;2022-12-07T17:14:12;26.40;65.90
61386;DHT22;47256;18.904;-99.054;2022-12-07T17:16:59;26.40;62.70
61386;DHT22;47256;18.904;-99.054;2022-12-07T17:19:29;26.60;64.70
61386;DHT22;47256;18.904;-99.054;2022-12-07T17:21:57;26.60;64.10
61386;DHT22;47256;18.904;-99.054;2022-12-07T17:24:25;26.80;59.40
61386;DHT22;47256;18.904;-99.054;2022-12-07T17:26:54;26.90;62.10
61386;DHT22;47256;18.904;-99.054;2022-12-07T17:29:24;27.00;61.00
61386;DHT22;47256;18.904;-99.054;2022-12-07T17:31:54;27.00;56.80
61386;DHT22;47256;18.904;-99.054;2022-12-07T17:34:22;27.10;58.40
61386;DHT22;47256;18.904;-99.054;2022-12-07T17:36:50;27.30;59.30
61386;DHT22;47256;18.904;-99.054;2022-12-07T17:39:19;27.40;55.50
61386;DHT22;47256;18.904;-99.054;2022-12-07T17:41:48;27.40;55.90
61386;DHT22;47256;18.904;-99.054;2022-12-07T17:44:34;27.60;55.50
61386;DHT22;47256;18.904;-99.054;2022-12-07T17:47:01;27.70;55.90